sensor_id;sensor_type;location;lat;lon;timestamp;P1;durP1;ratioP1;P2;durP2;ratioP2
14774;SDS011;7479;47.042;15.160;2023-03-05T06:41:50;31.03;;;17.00;;
14774;SDS011;7479;47.042;15.160;2023-03-05T06:59:09;31.30;;;14.80;;
14774;SDS011;7479;47.042;15.160;2023-03-05T07:04:03;23.87;;;14.73;;
14774;SDS011;7479;47.042;15.160;2023-03-05T07:17:02;22.83;;;14.90;;
14774;SDS011;7479;47.042;15.160;2023-03-05T07:21:56;23.23;;;14.27;;
14774;SDS011;7479;47.042;15.160;2023-03-05T07:26:50;25.27;;;13.43;;
14774;SDS011;7479;47.042;15.160;2023-03-05T07:39:38;22.77;;;14.60;;
14774;SDS011;7479;47.042;15.160;2023-03-05T07:44:32;21.93;;;13.60;;
14774;SDS011;7479;47.042;15.160;2023-03-05T07:49:26;27.97;;;13.07;;
14774;SDS011;7479;47.042;15.160;2023-03-05T07:54:20;22.63;;;12.53;;
14774;SDS011;7479;47.042;15.160;2023-03-05T08:05:32;19.30;;;12.57;;
14774;SDS011;7479;47.042;15.160;2023-03-05T08:10:26;27.97;;;12.87;;
14774;SDS011;7479;47.042;15.160;2023-03-05T08:15:20;20.27;;;12.60;;
14774;SDS011;7479;47.042;15.160;2023-03-05T08:20:13;23.70;;;13.73;;
14774;SDS011;7479;47.042;15.160;2023-03-05T08:25:08;24.77;;;13.00;;
14774;SDS011;7479;47.042;15.160;2023-03-05T08:30:02;22.37;;;13.13;;
14774;SDS011;7479;47.042;15.160;2023-03-05T08:34:56;20.50;;;11.93;;
14774;SDS011;7479;47.042;15.160;2023-03-05T08:39:50;18.07;;;12.23;;
14774;SDS011;7479;47.042;15.160;2023-03-05T08:44:45;20.13;;;12.57;;
14774;SDS011;7479;47.042;15.160;2023-03-05T08:49:38;20.80;;;12.90;;
14774;SDS011;7479;47.042;15.160;2023-03-05T08:54:32;18.17;;;12.10;;
14774;SDS011;7479;47.042;15.160;2023-03-05T08:59:28;22.53;;;12.53;;
14774;SDS011;7479;47.042;15.160;2023-03-05T09:04:23;21.70;;;12.73;;
14774;SDS011;7479;47.042;15.160;2023-03-05T09:09:17;18.23;;;12.83;;
14774;SDS011;7479;47.042;15.160;2023-03-05T09:14:12;21.17;;;12.60;;
14774;SDS011;7479;47.042;15.160;2023-03-05T09:19:05;20.77;;;13.30;;
14774;SDS011;7479;47.042;15.160;2023-03-05T09:24:02;19.23;;;13.27;;
14774;SDS011;7479;47.042;15.160;2023-03-05T09:28:56;24.27;;;14.10;;
14774;SDS011;7479;47.042;15.160;2023-03-05T09:33:50;21.80;;;13.57;;
14774;SDS011;7479;47.042;15.160;2023-03-05T09:38:44;19.03;;;12.90;;
14774;SDS011;7479;47.042;15.160;2023-03-05T09:43:43;23.50;;;12.70;;
14774;SDS011;7479;47.042;15.160;2023-03-05T09:48:49;19.80;;;13.87;;
14774;SDS011;7479;47.042;15.160;2023-03-05T09:53:44;19.93;;;13.87;;
14774;SDS011;7479;47.042;15.160;2023-03-05T09:58:43;19.13;;;13.13;;
14774;SDS011;7479;47.042;15.160;2023-03-05T10:03:47;19.63;;;13.50;;
14774;SDS011;7479;47.042;15.160;2023-03-05T10:08:49;22.40;;;13.57;;
14774;SDS011;7479;47.042;15.160;2023-03-05T10:13:47;17.73;;;13.60;;
14774;SDS011;7479;47.042;15.160;2023-03-05T10:18:44;21.67;;;13.10;;
14774;SDS011;7479;47.042;15.160;2023-03-05T10:24:01;20.43;;;13.93;;
14774;SDS011;7479;47.042;15.160;2023-03-05T10:29:06;16.90;;;12.83;;
14774;SDS011;7479;47.042;15.160;2023-03-05T10:34:16;19.03;;;12.43;;
14774;SDS011;7479;47.042;15.160;2023-03-05T10:39:43;20.30;;;12.97;;
14774;SDS011;7479;47.042;15.160;2023-03-05T10:44:45;17.67;;;12.33;;
14774;SDS011;7479;47.042;15.160;2023-03-05T10:49:43;16.67;;;12.37;;
14774;SDS011;7479;47.042;15.160;2023-03-05T10:54:40;21.20;;;12.67;;
14774;SDS011;7479;47.042;15.160;2023-03-05T10:59:34;15.97;;;12.30;;
14774;SDS011;7479;47.042;15.160;2023-03-05T11:04:29;15.80;;;11.37;;
14774;SDS011;7479;47.042;15.160;2023-03-05T11:09:28;16.57;;;11.40;;
14774;SDS011;7479;47.042;15.160;2023-03-05T11:14:23;16.23;;;11.57;;
14774;SDS011;7479;47.042;15.160;2023-03-05T11:19:24;15.33;;;12.10;;
14774;SDS011;7479;47.042;15.160;2023-03-05T11:24:24;16.77;;;11.10;;
14774;SDS011;7479;47.042;15.160;2023-03-05T11:29:19;19.13;;;13.80;;
14774;SDS011;7479;47.042;15.160;2023-03-05T11:34:21;17.23;;;11.97;;
14774;SDS011;7479;47.042;15.160;2023-03-05T11:39:27;15.57;;;11.30;;
14774;SDS011;7479;47.042;15.160;2023-03-05T11:44:26;15.10;;;11.10;;
14774;SDS011;7479;47.042;15.160;2023-03-05T11:49:22;15.67;;;11.67;;
14774;SDS011;7479;47.042;15.160;2023-03-05T11:54:20;16.27;;;11.47;;
14774;SDS011;7479;47.042;15.160;2023-03-05T11:59:21;17.03;;;11.93;;
14774;SDS011;7479;47.042;15.160;2023-03-05T12:04:19;14.47;;;10.60;;
14774;SDS011;7479;47.042;15.160;2023-03-05T12:09:15;15.77;;;12.13;;
14774;SDS011;7479;47.042;15.160;2023-03-05T12:14:16;16.37;;;11.93;;
14774;SDS011;7479;47.042;15.160;2023-03-05T12:19:33;15.13;;;11.23;;
14774;SDS011;7479;47.042;15.160;2023-03-05T12:24:36;14.73;;;11.40;;
14774;SDS011;7479;47.042;15.160;2023-03-05T12:29:38;16.97;;;11.73;;
14774;SDS011;7479;47.042;15.160;2023-03-05T12:34:35;16.07;;;11.40;;
14774;SDS011;7479;47.042;15.160;2023-03-05T12:55:47;16.60;;;11.87;;
14774;SDS011;7479;47.042;15.160;2023-03-05T13:00:51;16.37;;;11.13;;
14774;SDS011;7479;47.042;15.160;2023-03-05T13:05:51;16.67;;;11.37;;
14774;SDS011;7479;47.042;15.160;2023-03-05T13:10:50;14.33;;;11.17;;
14774;SDS011;7479;47.042;15.160;2023-03-05T13:15:45;15.70;;;11.03;;
14774;SDS011;7479;47.042;15.160;2023-03-05T13:20:43;16.03;;;11.40;;
14774;SDS011;7479;47.042;15.160;2023-03-05T13:25:36;15.17;;;11.67;;
14774;SDS011;7479;47.042;15.160;2023-03-05T13:30:30;16.27;;;11.27;;
14774;SDS011;7479;47.042;15.160;2023-03-05T13:35:25;17.23;;;11.83;;
14774;SDS011;7479;47.042;15.160;2023-03-05T13:40:22;16.25;;;10.93;;
14774;SDS011;7479;47.042;15.160;2023-03-05T13:45:22;17.70;;;11.68;;
14774;SDS011;7479;47.042;15.160;2023-03-05T13:50:21;17.30;;;12.02;;
14774;SDS011;7479;47.042;15.160;2023-03-05T13:55:16;15.35;;;11.68;;
14774;SDS011;7479;47.042;15.160;2023-03-05T14:00:25;17.80;;;11.57;;
14774;SDS011;7479;47.042;15.160;2023-03-05T14:05:21;16.23;;;11.30;;
14774;SDS011;7479;47.042;15.160;2023-03-05T14:10:25;16.75;;;11.75;;
14774;SDS011;7479;47.042;15.160;2023-03-05T14:15:23;17.75;;;12.32;;
14774;SDS011;7479;47.042;15.160;2023-03-05T14:20:21;14.80;;;11.15;;
14774;SDS011;7479;47.042;15.160;2023-03-05T14:25:28;20.85;;;14.65;;
14774;SDS011;7479;47.042;15.160;2023-03-05T14:30:29;17.05;;;11.32;;
14774;SDS011;7479;47.042;15.160;2023-03-05T14:35:24;20.05;;;12.20;;
14774;SDS011;7479;47.042;15.160;2023-03-05T14:40:20;16.17;;;12.80;;
14774;SDS011;7479;47.042;15.160;2023-03-05T14:45:19;19.77;;;12.60;;
14774;SDS011;7479;47.042;15.160;2023-03-05T14:50:17;18.50;;;12.87;;
14774;SDS011;7479;47.042;15.160;2023-03-05T14:55:13;20.83;;;11.83;;
14774;SDS011;7479;47.042;15.160;2023-03-05T15:00:13;17.37;;;12.83;;
14774;SDS011;7479;47.042;15.160;2023-03-05T15:05:08;19.10;;;13.53;;
14774;SDS011;7479;47.042;15.160;2023-03-05T15:10:04;15.77;;;11.83;;
14774;SDS011;7479;47.042;15.160;2023-03-05T15:14:59;19.40;;;13.10;;
14774;SDS011;7479;47.042;15.160;2023-03-05T15:19:54;15.20;;;12.03;;
14774;SDS011;7479;47.042;15.160;2023-03-05T15:24:51;15.30;;;11.77;;
14774;SDS011;7479;47.042;15.160;2023-03-05T15:29:46;15.97;;;11.80;;
14774;SDS011;7479;47.042;15.160;2023-03-05T15:34:40;19.07;;;11.93;;
14774;SDS011;7479;47.042;15.160;2023-03-05T15:39:33;18.60;;;12.30;;
14774;SDS011;7479;47.042;15.160;2023-03-05T15:44:27;17.20;;;11.20;;
14774;SDS011;7479;47.042;15.160;2023-03-05T15:49:22;18.87;;;12.63;;
14774;SDS011;7479;47.042;15.160;2023-03-05T15:54:16;17.67;;;12.83;;
14774;SDS011;7479;47.042;15.160;2023-03-05T15:59:10;21.03;;;13.70;;
14774;SDS011;7479;47.042;15.160;2023-03-05T16:04:05;20.93;;;14.87;;
14774;SDS011;7479;47.042;15.160;2023-03-05T16:09:02;19.07;;;12.83;;
14774;SDS011;7479;47.042;15.160;2023-03-05T16:13:57;22.77;;;14.20;;
14774;SDS011;7479;47.042;15.160;2023-03-05T16:18:52;21.07;;;12.77;;
14774;SDS011;7479;47.042;15.160;2023-03-05T16:23:46;19.93;;;13.10;;
14774;SDS011;7479;47.042;15.160;2023-03-05T16:28:42;21.33;;;13.60;;
14774;SDS011;7479;47.042;15.160;2023-03-05T16:33:37;18.47;;;12.93;;
14774;SDS011;7479;47.042;15.160;2023-03-05T16:38:31;20.63;;;13.00;;
14774;SDS011;7479;47.042;15.160;2023-03-05T16:43:25;20.80;;;12.87;;
14774;SDS011;7479;47.042;15.160;2023-03-05T16:48:20;20.50;;;13.13;;
14774;SDS011;7479;47.042;15.160;2023-03-05T16:53:13;17.77;;;13.17;;
14774;SDS011;7479;47.042;15.160;2023-03-05T16:58:07;21.80;;;14.23;;
14774;SDS011;7479;47.042;15.160;2023-03-05T17:03:00;21.80;;;15.70;;
14774;SDS011;7479;47.042;15.160;2023-03-05T17:07:56;18.97;;;13.83;;
14774;SDS011;7479;47.042;15.160;2023-03-05T17:12:52;26.23;;;19.73;;
14774;SDS011;7479;47.042;15.160;2023-03-05T17:17:47;21.77;;;16.23;;
14774;SDS011;7479;47.042;15.160;2023-03-05T17:22:40;25.10;;;15.97;;
14774;SDS011;7479;47.042;15.160;2023-03-05T17:27:36;31.33;;;21.33;;
14774;SDS011;7479;47.042;15.160;2023-03-05T17:32:29;26.07;;;17.13;;
14774;SDS011;7479;47.042;15.160;2023-03-05T17:37:23;26.00;;;17.60;;
14774;SDS011;7479;47.042;15.160;2023-03-05T17:42:17;27.10;;;16.87;;
14774;SDS011;7479;47.042;15.160;2023-03-05T17:47:12;23.43;;;17.03;;
14774;SDS011;7479;47.042;15.160;2023-03-05T17:52:06;23.50;;;16.63;;
14774;SDS011;7479;47.042;15.160;2023-03-05T17:57:00;26.07;;;17.10;;
14774;SDS011;7479;47.042;15.160;2023-03-05T18:01:53;24.07;;;15.90;;
14774;SDS011;7479;47.042;15.160;2023-03-05T18:06:49;25.00;;;16.17;;
14774;SDS011;7479;47.042;15.160;2023-03-05T18:11:42;27.53;;;16.10;;
14774;SDS011;7479;47.042;15.160;2023-03-05T18:16:36;20.70;;;15.43;;
14774;SDS011;7479;47.042;15.160;2023-03-05T18:21:29;20.93;;;15.33;;
14774;SDS011;7479;47.042;15.160;2023-03-05T18:26:25;28.30;;;17.20;;
